sensor_id;sensor_type;location;lat;lon;timestamp;pressure;altitude;pressure_sealevel;temperature;humidity
62111;BME280;48102;47.526;19.072;2023-09-18T03:42:02;100660.81;;;16.44;100.00
62111;BME280;48102;47.526;19.072;2023-09-18T03:45:07;100660.81;;;16.44;100.00
62111;BME280;48102;47.526;19.072;2023-09-18T03:48:11;100662.03;;;16.00;100.00
62111;BME280;48102;47.526;19.072;2023-09-18T03:51:15;100670.97;;;15.99;100.00
62111;BME280;48102;47.526;19.072;2023-09-18T03:54:19;100665.47;;;16.02;100.00
62111;BME280;48102;47.526;19.072;2023-09-18T03:57:27;100666.19;;;16.04;100.00
62111;BME280;48102;47.526;19.072;2023-09-18T04:00:30;100668.66;;;16.08;100.00
62111;BME280;48102;47.526;19.072;2023-09-18T04:03:33;100667.28;;;16.15;100.00
62111;BME280;48102;47.526;19.072;2023-09-18T04:06:43;100663.87;;;16.13;100.00
62111;BME280;48102;47.526;19.072;2023-09-18T04:09:47;100662.25;;;16.10;100.00
62111;BME280;48102;47.526;19.072;2023-09-18T04:12:51;100660.25;;;16.14;100.00
62111;BME280;48102;47.526;19.072;2023-09-18T04:15:55;100661.56;;;16.21;100.00
62111;BME280;48102;47.526;19.072;2023-09-18T04:19:00;100658.59;;;16.25;100.00
62111;BME280;48102;47.526;19.072;2023-09-18T04:22:03;100652.28;;;16.26;100.00
62111;BME280;48102;47.526;19.072;2023-09-18T04:25:06;100656.56;;;16.29;100.00
62111;BME280;48102;47.526;19.072;2023-09-18T04:28:09;100649.63;;;16.26;100.00
62111;BME280;48102;47.526;19.072;2023-09-18T04:31:12;100656.66;;;16.27;100.00
62111;BME280;48102;47.526;19.072;2023-09-18T04:34:15;100656.03;;;16.37;100.00
62111;BME280;48102;47.526;19.072;2023-09-18T04:37:18;100655.72;;;16.41;100.00
62111;BME280;48102;47.526;19.072;2023-09-18T04:40:21;100653.06;;;16.41;100.00
62111;BME280;48102;47.526;19.072;2023-09-18T04:43:26;100658.91;;;16.46;100.00
62111;BME280;48102;47.526;19.072;2023-09-18T04:46:33;100664.13;;;16.48;100.00
62111;BME280;48102;47.526;19.072;2023-09-18T04:49:38;100659.88;;;16.58;100.00
62111;BME280;48102;47.526;19.072;2023-09-18T04:52:41;100661.25;;;16.64;100.00
62111;BME280;48102;47.526;19.072;2023-09-18T04:55:46;100658.25;;;16.68;100.00
62111;BME280;48102;47.526;19.072;2023-09-18T04:58:52;100658.50;;;16.78;100.00
62111;BME280;48102;47.526;19.072;2023-09-18T05:01:55;100659.00;;;16.83;100.00
62111;BME280;48102;47.526;19.072;2023-09-18T05:04:58;100661.13;;;16.91;100.00
62111;BME280;48102;47.526;19.072;2023-09-18T05:08:01;100656.12;;;16.99;100.00
62111;BME280;48102;47.526;19.072;2023-09-18T05:11:05;100656.22;;;17.10;100.00
62111;BME280;48102;47.526;19.072;2023-09-18T05:14:08;100657.56;;;17.16;100.00
62111;BME280;48102;47.526;19.072;2023-09-18T05:17:15;100660.19;;;17.28;100.00
62111;BME280;48102;47.526;19.072;2023-09-18T05:20:18;100653.97;;;17.41;100.00
62111;BME280;48102;47.526;19.072;2023-09-18T05:23:22;100653.13;;;17.40;100.00
62111;BME280;48102;47.526;19.072;2023-09-18T05:26:25;100652.97;;;17.54;100.00
62111;BME280;48102;47.526;19.072;2023-09-18T05:29:29;100656.63;;;17.65;100.00
62111;BME280;48102;47.526;19.072;2023-09-18T05:32:35;100662.59;;;17.68;100.00
62111;BME280;48102;47.526;19.072;2023-09-18T05:35:43;100654.91;;;17.76;100.00
62111;BME280;48102;47.526;19.072;2023-09-18T05:38:47;100662.72;;;17.91;100.00
62111;BME280;48102;47.526;19.072;2023-09-18T05:41:50;100667.59;;;17.97;100.00
62111;BME280;48102;47.526;19.072;2023-09-18T05:44:53;100654.75;;;18.02;100.00
62111;BME280;48102;47.526;19.072;2023-09-18T05:47:57;100651.25;;;18.13;100.00
62111;BME280;48102;47.526;19.072;2023-09-18T05:51:06;100646.56;;;18.16;100.00
62111;BME280;48102;47.526;19.072;2023-09-18T05:54:09;100642.31;;;18.25;100.00
62111;BME280;48102;47.526;19.072;2023-09-18T05:57:12;100639.78;;;18.35;100.00
62111;BME280;48102;47.526;19.072;2023-09-18T06:00:16;100640.19;;;18.41;100.00
62111;BME280;48102;47.526;19.072;2023-09-18T06:03:20;100643.44;;;18.56;100.00
62111;BME280;48102;47.526;19.072;2023-09-18T06:06:24;100638.97;;;18.68;100.00
62111;BME280;48102;47.526;19.072;2023-09-18T06:09:30;100646.91;;;18.80;100.00
62111;BME280;48102;47.526;19.072;2023-09-18T06:12:33;100636.94;;;18.94;100.00
62111;BME280;48102;47.526;19.072;2023-09-18T06:15:36;100641.44;;;19.04;100.00
62111;BME280;48102;47.526;19.072;2023-09-18T06:18:39;100636.28;;;19.13;100.00
62111;BME280;48102;47.526;19.072;2023-09-18T06:21:43;100637.63;;;19.18;100.00
62111;BME280;48102;47.526;19.072;2023-09-18T06:24:46;100636.53;;;19.21;100.00
62111;BME280;48102;47.526;19.072;2023-09-18T06:27:49;100631.69;;;19.26;100.00
62111;BME280;48102;47.526;19.072;2023-09-18T06:30:52;100627.44;;;19.23;100.00
62111;BME280;48102;47.526;19.072;2023-09-18T06:33:57;100639.03;;;19.34;100.00
62111;BME280;48102;47.526;19.072;2023-09-18T06:36:59;100636.34;;;19.45;100.00
62111;BME280;48102;47.526;19.072;2023-09-18T06:40:03;100629.16;;;19.57;100.00
62111;BME280;48102;47.526;19.072;2023-09-18T06:43:07;100619.56;;;19.65;100.00
62111;BME280;48102;47.526;19.072;2023-09-18T06:46:10;100636.53;;;19.64;100.00
62111;BME280;48102;47.526;19.072;2023-09-18T06:49:13;100635.53;;;19.76;100.00
62111;BME280;48102;47.526;19.072;2023-09-18T06:52:16;100633.41;;;19.91;100.00
62111;BME280;48102;47.526;19.072;2023-09-18T06:55:19;100632.09;;;20.07;100.00
62111;BME280;48102;47.526;19.072;2023-09-18T06:58:22;100622.12;;;20.09;100.00
62111;BME280;48102;47.526;19.072;2023-09-18T07:01:25;100610.19;;;20.13;100.00
62111;BME280;48102;47.526;19.072;2023-09-18T07:04:30;100613.56;;;20.36;100.00
62111;BME280;48102;47.526;19.072;2023-09-18T07:07:33;100622.03;;;20.41;100.00
62111;BME280;48102;47.526;19.072;2023-09-18T07:10:38;100616.41;;;20.44;100.00
62111;BME280;48102;47.526;19.072;2023-09-18T07:13:41;100620.47;;;20.38;100.00
62111;BME280;48102;47.526;19.072;2023-09-18T07:16:46;100615.06;;;20.49;100.00
62111;BME280;48102;47.526;19.072;2023-09-18T07:19:49;100619.91;;;20.56;100.00
62111;BME280;48102;47.526;19.072;2023-09-18T07:22:52;100619.97;;;20.75;100.00
62111;BME280;48102;47.526;19.072;2023-09-18T07:25:55;100625.25;;;20.96;100.00
62111;BME280;48102;47.526;19.072;2023-09-18T07:28:58;100617.13;;;21.17;100.00
62111;BME280;48102;47.526;19.072;2023-09-18T07:32:04;100620.41;;;21.30;100.00
62111;BME280;48102;47.526;19.072;2023-09-18T07:35:07;100625.22;;;21.46;100.00
62111;BME280;48102;47.526;19.072;2023-09-18T07:38:10;100620.91;;;21.54;100.00
62111;BME280;48102;47.526;19.072;2023-09-18T07:41:13;100625.25;;;21.65;100.00
62111;BME280;48102;47.526;19.072;2023-09-18T07:44:21;100622.56;;;21.85;100.00
62111;BME280;48102;47.526;19.072;2023-09-18T07:47:24;100617.91;;;21.87;100.00
62111;BME280;48102;47.526;19.072;2023-09-18T07:50:26;100614.50;;;21.85;100.00
62111;BME280;48102;47.526;19.072;2023-09-18T07:53:30;100617.47;;;21.91;100.00
62111;BME280;48102;47.526;19.072;2023-09-18T07:56:35;100616.59;;;22.10;100.00
62111;BME280;48102;47.526;19.072;2023-09-18T07:59:39;100615.78;;;22.19;100.00
62111;BME280;48102;47.526;19.072;2023-09-18T08:02:42;100618.72;;;22.26;100.00
62111;BME280;48102;47.526;19.072;2023-09-18T08:05:46;100612.09;;;22.20;100.00
62111;BME280;48102;47.526;19.072;2023-09-18T08:08:50;100608.44;;;22.21;100.00
62111;BME280;48102;47.526;19.072;2023-09-18T08:11:54;100608.22;;;22.42;100.00
62111;BME280;48102;47.526;19.072;2023-09-18T08:14:58;100599.84;;;22.55;100.00
62111;BME280;48102;47.526;19.072;2023-09-18T08:18:02;100597.66;;;22.68;100.00
62111;BME280;48102;47.526;19.072;2023-09-18T08:21:05;100587.66;;;22.98;100.00
62111;BME280;48102;47.526;19.072;2023-09-18T08:24:08;100582.59;;;23.13;97.70
62111;BME280;48102;47.526;19.072;2023-09-18T08:27:16;100586.75;;;23.25;96.12
62111;BME280;48102;47.526;19.072;2023-09-18T08:30:22;100580.28;;;23.18;96.27
62111;BME280;48102;47.526;19.072;2023-09-18T09:46:59;100559.56;;;26.33;74.30
62111;BME280;48102;47.526;19.072;2023-09-18T09:50:07;100559.56;;;26.33;74.30
62111;BME280;48102;47.526;19.072;2023-09-18T09:53:12;100559.97;;;25.89;73.34
62111;BME280;48102;47.526;19.072;2023-09-18T09:56:17;100557.59;;;25.86;74.15
62111;BME280;48102;47.526;19.072;2023-09-18T09:59:24;100545.63;;;26.05;73.10
62111;BME280;48102;47.526;19.072;2023-09-18T10:02:30;100537.66;;;26.11;72.90
62111;BME280;48102;47.526;19.072;2023-09-18T10:05:36;100529.38;;;26.21;72.66
62111;BME280;48102;47.526;19.072;2023-09-18T10:08:40;100527.81;;;26.35;70.50
62111;BME280;48102;47.526;19.072;2023-09-18T10:11:51;100515.97;;;26.44;69.93
62111;BME280;48102;47.526;19.072;2023-09-18T10:14:56;100517.66;;;26.45;68.64
62111;BME280;48102;47.526;19.072;2023-09-18T10:18:16;100513.59;;;26.49;67.70
62111;BME280;48102;47.526;19.072;2023-09-18T10:21:38;100516.84;;;26.75;67.39
62111;BME280;48102;47.526;19.072;2023-09-18T10:24:46;100512.91;;;26.86;66.17
62111;BME280;48102;47.526;19.072;2023-09-18T10:27:52;100503.22;;;26.92;64.33
62111;BME280;48102;47.526;19.072;2023-09-18T10:31:06;100501.97;;;27.02;63.56
62111;BME280;48102;47.526;19.072;2023-09-18T10:34:10;100493.28;;;27.15;61.56
62111;BME280;48102;47.526;19.072;2023-09-18T10:37:15;100489.13;;;27.27;63.78
62111;BME280;48102;47.526;19.072;2023-09-18T10:40:20;100478.22;;;27.21;61.60
62111;BME280;48102;47.526;19.072;2023-09-18T10:43:23;100476.56;;;27.35;62.85
62111;BME280;48102;47.526;19.072;2023-09-18T10:46:26;100470.53;;;27.47;62.28
62111;BME280;48102;47.526;19.072;2023-09-18T10:49:30;100471.94;;;27.58;61.71
62111;BME280;48102;47.526;19.072;2023-09-18T10:52:34;100455.78;;;27.73;61.13
62111;BME280;48102;47.526;19.072;2023-09-18T10:55:37;100447.91;;;27.78;61.42
62111;BME280;48102;47.526;19.072;2023-09-18T10:58:42;100446.53;;;27.82;59.94
62111;BME280;48102;47.526;19.072;2023-09-18T11:01:46;100457.63;;;27.87;59.96
62111;BME280;48102;47.526;19.072;2023-09-18T11:04:52;100456.34;;;27.98;60.13
62111;BME280;48102;47.526;19.072;2023-09-18T11:08:31;100454.81;;;28.10;58.38
62111;BME280;48102;47.526;19.072;2023-09-18T11:11:36;100455.97;;;28.16;57.20
62111;BME280;48102;47.526;19.072;2023-09-18T11:17:59;100439.97;;;28.72;57.44
62111;BME280;48102;47.526;19.072;2023-09-18T11:21:07;100441.91;;;28.78;56.02
62111;BME280;48102;47.526;19.072;2023-09-18T11:24:19;100421.88;;;28.58;55.46
62111;BME280;48102;47.526;19.072;2023-09-18T11:27:26;100432.81;;;28.49;57.22
62111;BME280;48102;47.526;19.072;2023-09-18T11:30:56;100426.84;;;29.12;54.75
62111;BME280;48102;47.526;19.072;2023-09-18T11:34:11;100430.84;;;29.44;53.65
62111;BME280;48102;47.526;19.072;2023-09-18T11:37:21;100408.44;;;29.35;53.25
62111;BME280;48102;47.526;19.072;2023-09-18T11:40:32;100417.81;;;29.89;52.48
62111;BME280;48102;47.526;19.072;2023-09-18T11:43:43;100400.31;;;30.05;50.49
62111;BME280;48102;47.526;19.072;2023-09-18T11:46:48;100405.63;;;29.78;50.33
62111;BME280;48102;47.526;19.072;2023-09-18T11:49:58;100407.03;;;30.09;51.64
62111;BME280;48102;47.526;19.072;2023-09-18T11:53:02;100395.72;;;30.60;48.82
62111;BME280;48102;47.526;19.072;2023-09-18T11:56:10;100407.94;;;30.90;46.93
62111;BME280;48102;47.526;19.072;2023-09-18T11:59:17;100380.06;;;30.62;48.35
62111;BME280;48102;47.526;19.072;2023-09-18T12:02:29;100380.72;;;30.77;47.87
62111;BME280;48102;47.526;19.072;2023-09-18T12:05:41;100372.13;;;30.73;47.31
62111;BME280;48102;47.526;19.072;2023-09-18T12:08:45;100365.28;;;30.16;48.14
62111;BME280;48102;47.526;19.072;2023-09-18T12:11:49;100362.87;;;30.55;47.95
62111;BME280;48102;47.526;19.072;2023-09-18T12:14:56;100357.22;;;30.69;46.95
62111;BME280;48102;47.526;19.072;2023-09-18T12:18:09;100350.78;;;30.77;45.74
62111;BME280;48102;47.526;19.072;2023-09-18T12:21:16;100346.81;;;30.86;47.14
62111;BME280;48102;47.526;19.072;2023-09-18T12:24:24;100354.97;;;31.19;46.03
62111;BME280;48102;47.526;19.072;2023-09-18T12:27:29;100353.53;;;31.30;44.46
62111;BME280;48102;47.526;19.072;2023-09-18T12:30:33;100355.22;;;31.31;44.99
62111;BME280;48102;47.526;19.072;2023-09-18T12:33:38;100360.59;;;31.51;43.78
62111;BME280;48102;47.526;19.072;2023-09-18T12:36:43;100342.91;;;32.38;42.87
62111;BME280;48102;47.526;19.072;2023-09-18T12:39:46;100341.06;;;32.95;41.18
62111;BME280;48102;47.526;19.072;2023-09-18T12:42:50;100338.72;;;32.36;40.89
62111;BME280;48102;47.526;19.072;2023-09-18T12:45:53;100334.50;;;32.33;42.23
62111;BME280;48102;47.526;19.072;2023-09-18T12:49:23;100327.94;;;32.79;42.58
62111;BME280;48102;47.526;19.072;2023-09-18T12:52:30;100327.75;;;34.76;37.83
62111;BME280;48102;47.526;19.072;2023-09-18T12:55:35;100323.19;;;37.07;33.50
62111;BME280;48102;47.526;19.072;2023-09-18T12:58:39;100311.56;;;36.09;34.05
62111;BME280;48102;47.526;19.072;2023-09-18T13:02:02;100308.41;;;36.17;34.71
62111;BME280;48102;47.526;19.072;2023-09-18T13:05:07;100318.13;;;36.08;34.48
62111;BME280;48102;47.526;19.072;2023-09-18T13:08:10;100302.84;;;35.72;34.81
62111;BME280;48102;47.526;19.072;2023-09-18T13:11:15;100300.41;;;36.27;34.25
62111;BME280;48102;47.526;19.072;2023-09-18T13:14:19;100309.16;;;37.25;32.61
62111;BME280;48102;47.526;19.072;2023-09-18T13:17:22;100293.09;;;38.54;30.41
62111;BME280;48102;47.526;19.072;2023-09-18T13:20:28;100304.78;;;41.41;27.74
62111;BME280;48102;47.526;19.072;2023-09-18T13:23:34;100286.59;;;42.97;24.54
62111;BME280;48102;47.526;19.072;2023-09-18T13:26:37;100274.13;;;42.71;25.35
62111;BME280;48102;47.526;19.072;2023-09-18T13:29:40;100277.72;;;42.66;26.12
62111;BME280;48102;47.526;19.072;2023-09-18T13:32:44;100288.00;;;42.66;25.21
62111;BME280;48102;47.526;19.072;2023-09-18T13:35:47;100266.84;;;41.47;25.41
62111;BME280;48102;47.526;19.072;2023-09-18T13:38:50;100260.06;;;40.22;27.35
62111;BME280;48102;47.526;19.072;2023-09-18T13:41:53;100257.75;;;41.96;27.45
62111;BME280;48102;47.526;19.072;2023-09-18T13:44:57;100250.53;;;41.40;26.84
62111;BME280;48102;47.526;19.072;2023-09-18T13:48:02;100241.19;;;42.64;25.60
62111;BME280;48102;47.526;19.072;2023-09-18T13:51:05;100234.50;;;42.94;24.68
62111;BME280;48102;47.526;19.072;2023-09-18T13:54:07;100238.03;;;42.76;24.83
62111;BME280;48102;47.526;19.072;2023-09-18T13:57:10;100228.50;;;41.74;25.81
62111;BME280;48102;47.526;19.072;2023-09-18T14:00:13;100223.78;;;41.20;26.31
62111;BME280;48102;47.526;19.072;2023-09-18T14:03:16;100218.41;;;40.33;27.57
62111;BME280;48102;47.526;19.072;2023-09-18T14:06:21;100196.31;;;38.35;29.94
62111;BME280;48102;47.526;19.072;2023-09-18T14:09:25;100202.06;;;38.71;30.00
62111;BME280;48102;47.526;19.072;2023-09-18T14:12:27;100194.72;;;38.17;29.86
62111;BME280;48102;47.526;19.072;2023-09-18T14:15:30;100194.41;;;36.94;31.29
62111;BME280;48102;47.526;19.072;2023-09-18T14:18:33;100185.81;;;35.60;33.37
62111;BME280;48102;47.526;19.072;2023-09-18T14:21:36;100188.28;;;36.02;32.17
62111;BME280;48102;47.526;19.072;2023-09-18T14:24:41;100177.31;;;36.02;32.76
62111;BME280;48102;47.526;19.072;2023-09-18T14:27:44;100173.31;;;35.24;33.96
62111;BME280;48102;47.526;19.072;2023-09-18T14:30:47;100164.53;;;35.51;33.67
62111;BME280;48102;47.526;19.072;2023-09-18T14:33:50;100157.62;;;34.84;34.63
62111;BME280;48102;47.526;19.072;2023-09-18T14:36:53;100151.16;;;33.97;35.87
62111;BME280;48102;47.526;19.072;2023-09-18T14:39:56;100160.97;;;32.64;38.25
62111;BME280;48102;47.526;19.072;2023-09-18T14:42:59;100155.91;;;31.54;39.65
62111;BME280;48102;47.526;19.072;2023-09-18T14:46:02;100153.03;;;30.51;42.42
62111;BME280;48102;47.526;19.072;2023-09-18T14:49:08;100140.50;;;30.30;42.74
62111;BME280;48102;47.526;19.072;2023-09-18T14:52:14;100151.34;;;29.90;43.70
62111;BME280;48102;47.526;19.072;2023-09-18T14:55:18;100133.97;;;29.71;44.23
62111;BME280;48102;47.526;19.072;2023-09-18T14:58:21;100134.41;;;29.75;44.21
62111;BME280;48102;47.526;19.072;2023-09-18T15:01:27;100131.28;;;29.98;43.84
62111;BME280;48102;47.526;19.072;2023-09-18T15:04:32;100135.28;;;30.29;42.75
62111;BME280;48102;47.526;19.072;2023-09-18T15:07:36;100133.78;;;30.66;42.35
62111;BME280;48102;47.526;19.072;2023-09-18T15:10:39;100132.63;;;31.13;41.35
62111;BME280;48102;47.526;19.072;2023-09-18T15:13:42;100126.97;;;31.08;41.82
62111;BME280;48102;47.526;19.072;2023-09-18T15:16:45;100126.91;;;30.37;42.61
62111;BME280;48102;47.526;19.072;2023-09-18T15:19:48;100122.06;;;29.79;44.46
62111;BME280;48102;47.526;19.072;2023-09-18T15:22:58;100128.22;;;29.40;45.92
62111;BME280;48102;47.526;19.072;2023-09-18T15:26:00;100108.50;;;29.11;45.81
62111;BME280;48102;47.526;19.072;2023-09-18T15:29:04;100108.97;;;28.87;46.48
